createdAt,value
2019-04-23T00:02:21.494Z,27.52
2019-04-23T00:04:55.588Z,30.20
2019-04-23T00:07:44.487Z,29.50
2019-04-23T00:10:03.562Z,28.02
2019-04-23T00:12:45.231Z,28.67
2019-04-23T00:17:42.658Z,31.30
2019-04-23T00:20:14.690Z,30.92
2019-04-23T00:22:53.287Z,31.42
2019-04-23T00:25:45.020Z,30.52
2019-04-23T00:28:14.163Z,31.15
2019-04-23T00:33:31.425Z,35.68
2019-04-23T00:35:59.689Z,36.10
2019-04-23T00:38:33.560Z,35.53
2019-04-23T00:43:43.118Z,35.08
2019-04-23T00:48:51.855Z,34.58
2019-04-23T00:53:51.417Z,32.70
2019-04-23T00:56:38.703Z,34.03
2019-04-23T00:59:01.416Z,33.38
2019-04-23T01:01:44.458Z,33.80
2019-04-23T01:06:46.051Z,36.38
2019-04-23T01:09:15.272Z,34.90
2019-04-23T01:11:48.199Z,34.60
2019-04-23T01:14:20.239Z,35.38
2019-04-23T01:16:55.057Z,38.13
2019-04-23T01:21:49.362Z,35.83
2019-04-23T01:24:34.422Z,37.20
2019-04-23T01:30:15.911Z,37.20
2019-04-23T01:32:44.030Z,38.92
2019-04-23T01:37:46.538Z,39.05
2019-04-23T01:40:26.023Z,37.97
2019-04-23T01:42:58.708Z,39.13
2019-04-23T01:45:48.130Z,38.70
2019-04-23T01:48:09.577Z,39.38
2019-04-23T01:50:48.328Z,38.60
2019-04-23T01:53:24.709Z,38.78
2019-04-23T01:55:52.705Z,38.48
2019-04-23T01:58:40.300Z,39.67
2019-04-23T02:01:00.738Z,38.45
2019-04-23T02:03:34.704Z,38.60
2019-04-23T02:06:11.716Z,38.13
2019-04-23T02:08:44.632Z,39.13
2019-04-23T02:11:28.164Z,38.70
2019-04-23T02:16:21.693Z,41.42
2019-04-23T02:21:26.013Z,38.35
2019-04-23T02:23:57.301Z,41.65
2019-04-23T02:26:33.895Z,39.88
2019-04-23T02:34:31.348Z,40.00
2019-04-23T02:39:32.740Z,41.55
2019-04-23T02:47:23.119Z,40.88
2019-04-23T02:52:21.371Z,41.60
2019-04-23T02:57:18.680Z,39.63
2019-04-23T03:02:47.844Z,40.58
2019-04-23T03:05:00.870Z,40.40
2019-04-23T03:07:45.624Z,41.30
2019-04-23T03:13:10.230Z,43.35
2019-04-23T03:15:52.679Z,42.65
2019-04-23T03:23:44.261Z,43.28
2019-04-23T03:26:36.856Z,43.95
2019-04-23T03:29:06.513Z,44.03
2019-04-23T03:34:45.432Z,40.17
2019-04-23T03:37:14.364Z,45.88
2019-04-23T03:39:05.838Z,43.35
2019-04-23T03:41:48.271Z,43.50
2019-04-23T03:44:27.058Z,42.98
2019-04-23T03:46:51.410Z,42.33
2019-04-23T03:49:32.783Z,42.53
2019-04-23T03:54:42.153Z,45.05
2019-04-23T03:57:24.583Z,43.50
2019-04-23T03:59:51.961Z,42.87
2019-04-23T04:02:36.517Z,42.53
2019-04-23T04:04:44.532Z,43.68
2019-04-23T04:10:07.828Z,44.65
2019-04-23T04:12:39.663Z,46.53
2019-04-23T04:15:06.174Z,43.77
2019-04-23T04:18:14.018Z,45.03
2019-04-23T04:20:19.758Z,43.87
2019-04-23T04:25:30.703Z,45.48
2019-04-23T04:28:12.374Z,44.10
2019-04-23T04:30:33.769Z,41.63
2019-04-23T04:33:09.798Z,40.63
2019-04-23T04:40:42.184Z,37.80
2019-04-23T04:46:10.015Z,38.23
2019-04-23T04:48:22.987Z,37.42
2019-04-23T04:51:00.731Z,37.10
2019-04-23T04:53:46.705Z,37.10
2019-04-23T04:58:46.709Z,37.65
2019-04-23T05:01:13.827Z,35.85
2019-04-23T05:03:57.901Z,35.33
2019-04-23T05:08:54.405Z,42.67
2019-04-23T05:11:34.990Z,58.98
2019-04-23T05:16:29.453Z,52.20
2019-04-23T05:21:46.615Z,39.95
2019-04-23T05:24:15.033Z,36.60
2019-04-23T05:26:37.598Z,38.60
2019-04-23T05:29:14.973Z,38.95
2019-04-23T05:31:56.050Z,36.00
2019-04-23T05:34:38.081Z,36.30
2019-04-23T05:37:07.108Z,35.98
2019-04-23T05:42:10.629Z,38.97
2019-04-23T05:44:52.539Z,37.93
2019-04-23T05:47:21.703Z,38.17
2019-04-23T05:49:52.026Z,38.23
2019-04-23T05:52:34.365Z,38.38
2019-04-23T05:55:01.686Z,38.77
2019-04-23T05:57:42.741Z,32.98
2019-04-23T06:00:19.339Z,31.60
2019-04-23T06:02:59.225Z,30.57
2019-04-23T06:05:30.501Z,30.37
2019-04-23T06:08:09.534Z,28.47
2019-04-23T06:10:40.693Z,25.32
2019-04-23T06:13:13.694Z,25.23
2019-04-23T06:15:58.150Z,24.23
2019-04-23T06:23:30.451Z,23.90
2019-04-23T06:26:15.500Z,23.40
2019-04-23T06:28:31.551Z,27.58
2019-04-23T06:31:09.738Z,29.72
2019-04-23T06:33:41.802Z,49.93
2019-04-23T06:36:19.518Z,32.95
2019-04-23T06:41:30.590Z,27.87
2019-04-23T06:44:09.199Z,26.55
2019-04-23T06:46:37.379Z,26.15
2019-04-23T06:49:14.455Z,25.48
2019-04-23T06:54:31.524Z,19.25
2019-04-23T06:59:30.765Z,17.87
2019-04-23T07:02:07.989Z,17.80
2019-04-23T07:04:41.010Z,14.87
2019-04-23T07:07:36.571Z,15.55
2019-04-23T07:09:47.127Z,16.97
2019-04-23T07:15:13.264Z,22.62
2019-04-23T07:17:30.990Z,23.30
2019-04-23T07:22:46.871Z,24.00
2019-04-23T07:25:15.922Z,21.70
2019-04-23T07:27:51.112Z,20.17
2019-04-23T07:30:20.913Z,21.20
2019-04-23T07:32:56.638Z,19.85
2019-04-23T07:35:31.991Z,18.30
2019-04-23T07:41:47.931Z,19.90
2019-04-23T07:44:24.570Z,17.92
2019-04-23T07:47:16.278Z,17.57
2019-04-23T07:49:52.224Z,18.17
2019-04-23T07:52:31.983Z,16.75
2019-04-23T07:54:58.761Z,16.75
2019-04-23T08:00:00.929Z,16.70
2019-04-23T08:02:45.281Z,16.23
2019-04-23T08:05:15.630Z,16.10
2019-04-23T08:07:47.294Z,15.85
2019-04-23T08:10:14.155Z,16.37
2019-04-23T08:12:52.733Z,16.65
2019-04-23T08:15:28.278Z,16.48
2019-04-23T08:17:59.027Z,16.95
2019-04-23T08:20:35.098Z,16.42
2019-04-23T08:23:21.784Z,16.40
2019-04-23T08:28:59.641Z,16.87
2019-04-23T08:31:16.542Z,17.50
2019-04-23T08:36:29.452Z,17.48
2019-04-23T08:38:58.685Z,16.62
2019-04-23T08:41:33.773Z,19.57
2019-04-23T08:47:02.666Z,23.27
2019-04-23T08:49:47.623Z,18.92
2019-04-23T08:54:48.296Z,17.15
2019-04-23T08:57:14.456Z,17.20
2019-04-23T09:02:30.610Z,16.23
2019-04-23T09:05:00.518Z,17.73
2019-04-23T09:07:27.600Z,17.10
2019-04-23T09:10:04.726Z,20.15
2019-04-23T09:12:55.236Z,21.00
2019-04-23T09:15:15.383Z,20.95
2019-04-23T09:17:47.818Z,19.40
2019-04-23T09:20:23.296Z,18.37
2019-04-23T09:22:53.032Z,17.48
2019-04-23T09:25:37.314Z,19.10
2019-04-23T09:27:59.456Z,19.90
2019-04-23T09:30:42.811Z,19.80
2019-04-23T09:33:41.384Z,18.05
2019-04-23T09:36:25.679Z,18.77
2019-04-23T09:39:06.351Z,17.02
2019-04-23T09:41:37.254Z,17.82
2019-04-23T09:44:56.272Z,16.52
2019-04-23T09:47:16.041Z,17.85
2019-04-23T09:49:50.155Z,17.42
2019-04-23T09:57:47.355Z,20.30
2019-04-23T10:00:26.906Z,22.00
2019-04-23T10:02:45.621Z,20.10
2019-04-23T10:05:22.453Z,19.85
2019-04-23T10:07:53.340Z,19.85
2019-04-23T10:10:16.475Z,21.10
2019-04-23T10:12:50.183Z,20.48
2019-04-23T10:15:26.673Z,20.00
2019-04-23T10:17:56.370Z,19.62
2019-04-23T10:20:29.033Z,19.57
2019-04-23T10:23:02.147Z,20.43
2019-04-23T10:25:36.041Z,17.95
2019-04-23T10:28:25.079Z,19.15
2019-04-23T10:30:58.713Z,19.10
2019-04-23T10:33:31.786Z,19.35
2019-04-23T10:36:10.760Z,18.77
2019-04-23T10:38:41.690Z,19.17
2019-04-23T10:41:13.967Z,18.92
2019-04-23T10:43:52.216Z,23.55
2019-04-23T10:46:42.990Z,18.92
2019-04-23T10:52:13.492Z,18.80
2019-04-23T10:54:52.303Z,19.05
2019-04-23T10:57:12.776Z,18.15
2019-04-23T10:59:43.303Z,18.32
2019-04-23T11:07:32.529Z,19.73
2019-04-23T11:10:08.600Z,19.52
2019-04-23T11:12:46.408Z,19.15
2019-04-23T11:15:32.240Z,18.70
2019-04-23T11:18:02.796Z,19.67
2019-04-23T11:23:01.664Z,18.75
2019-04-23T11:28:21.390Z,20.40
2019-04-23T11:31:03.497Z,18.60
2019-04-23T11:33:37.962Z,17.50
2019-04-23T11:36:41.075Z,18.30
2019-04-23T11:38:56.225Z,19.15
2019-04-23T11:41:32.292Z,18.45
2019-04-23T11:43:53.413Z,18.77
2019-04-23T11:49:34.667Z,18.35
2019-04-23T11:59:31.508Z,18.23
2019-04-23T12:02:12.102Z,18.05
2019-04-23T12:05:17.287Z,18.62
2019-04-23T12:07:50.276Z,18.42
2019-04-23T12:13:16.847Z,18.67
2019-04-23T12:15:51.722Z,19.12
2019-04-23T12:18:28.396Z,19.40
2019-04-23T12:21:14.283Z,18.25
2019-04-23T12:26:31.370Z,18.85
2019-04-23T12:28:49.713Z,19.37
2019-04-23T12:31:26.674Z,18.05
2019-04-23T12:34:09.624Z,18.60
2019-04-23T12:39:30.421Z,17.82
2019-04-23T12:42:11.184Z,18.77
2019-04-23T12:44:44.233Z,18.00
2019-04-23T12:47:18.751Z,18.35
2019-04-23T12:52:17.115Z,18.75
2019-04-23T12:54:59.014Z,18.20
2019-04-23T12:57:29.752Z,17.42
2019-04-23T12:59:58.330Z,18.73
2019-04-23T13:02:38.325Z,18.55
2019-04-23T13:05:12.441Z,17.20
2019-04-23T13:10:15.856Z,16.97
2019-04-23T13:20:33.557Z,16.25
2019-04-23T13:25:49.504Z,15.65
2019-04-23T13:28:21.439Z,16.65
2019-04-23T13:30:53.035Z,16.37
2019-04-23T13:38:43.841Z,15.98
2019-04-23T13:41:17.167Z,15.85
2019-04-23T13:46:14.915Z,17.05
2019-04-23T13:48:46.971Z,15.68
2019-04-23T13:51:26.017Z,17.10
2019-04-23T13:54:04.190Z,17.02
2019-04-23T13:57:03.222Z,17.23
2019-04-23T13:59:29.030Z,17.48
2019-04-23T14:01:57.952Z,17.98
2019-04-23T14:07:09.860Z,17.35
2019-04-23T14:09:57.155Z,17.30
2019-04-23T14:12:17.723Z,17.80
2019-04-23T14:15:06.461Z,18.10
2019-04-23T14:17:46.738Z,15.98
2019-04-23T14:20:09.919Z,17.50
2019-04-23T14:25:11.506Z,16.75
2019-04-23T14:28:01.335Z,16.77
2019-04-23T14:30:29.933Z,16.45
2019-04-23T14:33:00.934Z,17.25
2019-04-23T14:38:15.693Z,15.90
2019-04-23T14:40:43.146Z,16.23
2019-04-23T14:43:14.631Z,15.10
2019-04-23T14:46:27.115Z,16.40
2019-04-23T14:48:27.906Z,16.55
2019-04-23T14:51:11.204Z,16.07
2019-04-23T14:53:30.192Z,15.77
2019-04-23T14:56:09.415Z,15.25
2019-04-23T15:11:45.149Z,15.98
2019-04-23T15:17:00.404Z,17.65
2019-04-23T15:22:13.620Z,16.55
2019-04-23T15:24:48.639Z,17.00
2019-04-23T15:29:49.994Z,16.50
2019-04-23T15:32:38.142Z,16.23
2019-04-23T15:35:18.566Z,16.27
2019-04-23T15:45:28.558Z,16.10
2019-04-23T15:48:03.337Z,18.40
2019-04-23T15:50:52.419Z,17.37
2019-04-23T15:55:51.773Z,15.35
2019-04-23T16:00:55.838Z,16.30
2019-04-23T16:02:55.999Z,16.17
2019-04-23T16:05:27.884Z,16.57
2019-04-23T16:08:23.915Z,16.45
2019-04-23T16:11:10.359Z,15.90
2019-04-23T16:13:36.545Z,16.80
2019-04-23T16:16:18.703Z,17.05
2019-04-23T16:19:07.256Z,15.65
2019-04-23T16:21:47.721Z,16.32
2019-04-23T16:24:13.581Z,17.15
2019-04-23T16:26:50.674Z,17.90
2019-04-23T16:31:54.730Z,16.87
2019-04-23T16:34:33.229Z,17.90
2019-04-23T16:37:09.907Z,18.90
2019-04-23T16:39:49.245Z,18.37
2019-04-23T16:45:12.437Z,19.55
2019-04-23T16:52:36.698Z,20.17
2019-04-23T16:55:12.917Z,22.60
2019-04-23T16:57:43.826Z,23.92
2019-04-23T17:00:22.926Z,23.53
2019-04-23T17:03:02.358Z,25.43
2019-04-23T17:05:33.418Z,29.02
2019-04-23T17:08:24.281Z,42.55
2019-04-23T17:10:38.666Z,33.50
2019-04-23T17:15:53.825Z,34.10
2019-04-23T17:18:16.742Z,34.40
2019-04-23T17:20:53.092Z,32.80
2019-04-23T17:23:34.522Z,29.80
2019-04-23T17:26:04.232Z,28.93
2019-04-23T17:28:33.038Z,29.75
2019-04-23T17:31:26.325Z,28.03
2019-04-23T17:39:08.551Z,29.40
2019-04-23T17:42:01.427Z,30.17
2019-04-23T17:47:14.160Z,29.77
2019-04-23T17:49:53.936Z,32.08
2019-04-23T17:52:20.314Z,34.27
2019-04-23T17:54:55.248Z,31.93
2019-04-23T18:02:55.879Z,34.40
2019-04-23T18:05:27.368Z,37.50
2019-04-23T18:10:30.352Z,34.95
2019-04-23T18:12:58.392Z,37.70
2019-04-23T18:15:24.373Z,37.83
2019-04-23T18:20:52.178Z,39.73
2019-04-23T18:23:18.331Z,39.58
2019-04-23T18:26:07.950Z,38.38
2019-04-23T18:28:37.120Z,40.23
2019-04-23T18:31:14.336Z,40.73
2019-04-23T18:36:13.242Z,26.65
2019-04-23T18:38:53.075Z,28.00
2019-04-23T18:41:18.102Z,25.57
2019-04-23T18:44:02.943Z,24.10
2019-04-23T18:46:37.239Z,24.90
2019-04-23T18:49:10.879Z,23.83
2019-04-23T18:51:55.105Z,22.02
2019-04-23T18:54:24.044Z,21.65
2019-04-23T18:59:39.289Z,20.57
2019-04-23T19:02:17.356Z,21.33
2019-04-23T19:05:08.362Z,21.17
2019-04-23T19:07:51.628Z,18.80
2019-04-23T19:10:29.260Z,19.17
2019-04-23T19:12:56.997Z,17.95
2019-04-23T19:18:12.917Z,15.72
2019-04-23T19:21:03.805Z,15.40
2019-04-23T19:23:42.793Z,15.70
2019-04-23T19:26:41.815Z,14.60
2019-04-23T19:31:46.231Z,12.80
2019-04-23T19:44:38.398Z,12.65
2019-04-23T19:47:33.254Z,12.55
2019-04-23T19:52:11.376Z,11.80
2019-04-23T19:57:28.518Z,11.95
2019-04-23T19:59:57.913Z,11.08
2019-04-23T20:02:58.250Z,11.60
2019-04-23T20:05:03.091Z,10.68
2019-04-23T20:07:48.893Z,11.33
2019-04-23T20:10:17.490Z,11.45
2019-04-23T20:12:44.590Z,10.80
2019-04-23T20:15:29.559Z,10.78
2019-04-23T20:17:54.194Z,10.50
2019-04-23T20:20:45.426Z,10.82
2019-04-23T20:23:13.984Z,10.50
2019-04-23T20:26:10.277Z,10.78
2019-04-23T20:28:57.800Z,10.80
2019-04-23T20:34:24.400Z,10.63
2019-04-23T20:36:46.197Z,10.55
2019-04-23T20:39:34.932Z,10.90
2019-04-23T20:42:08.954Z,11.50
2019-04-23T20:49:42.736Z,10.30
2019-04-23T20:57:39.182Z,11.18
2019-04-23T21:00:03.569Z,11.55
2019-04-23T21:03:08.266Z,10.60
2019-04-23T21:05:15.438Z,11.08
2019-04-23T21:15:37.415Z,10.80
2019-04-23T21:20:45.171Z,12.50
2019-04-23T21:23:14.253Z,13.63
2019-04-23T21:25:47.637Z,14.23
2019-04-23T21:28:47.575Z,16.48
2019-04-23T21:31:11.511Z,16.97
2019-04-23T21:36:37.845Z,18.70
2019-04-23T21:42:01.941Z,21.30
2019-04-23T21:47:04.618Z,20.12
2019-04-23T21:49:50.366Z,21.05
2019-04-23T21:54:49.564Z,17.23
2019-04-23T21:57:31.007Z,18.42
2019-04-23T21:59:56.063Z,18.57
2019-04-23T22:02:28.587Z,19.93
2019-04-23T22:05:21.361Z,20.43
2019-04-23T22:07:40.171Z,27.63
2019-04-23T22:10:02.678Z,38.63
2019-04-23T22:12:52.714Z,25.00
2019-04-23T22:15:13.072Z,28.17
2019-04-23T22:25:34.878Z,16.35
2019-04-23T22:27:58.233Z,14.95
2019-04-23T22:30:54.715Z,19.73
2019-04-23T22:33:09.878Z,18.75
2019-04-23T22:35:48.235Z,15.35
2019-04-23T22:38:21.126Z,16.20
2019-04-23T22:40:56.169Z,18.35
2019-04-23T22:46:08.673Z,19.80
2019-04-23T22:48:47.824Z,21.62
2019-04-23T22:53:50.787Z,22.02
2019-04-23T22:56:20.734Z,20.97
2019-04-23T23:01:43.134Z,21.68
2019-04-23T23:04:04.799Z,20.92
2019-04-23T23:06:48.898Z,20.30
2019-04-23T23:09:23.115Z,20.93
2019-04-23T23:16:57.001Z,24.00
2019-04-23T23:24:39.569Z,24.75
2019-04-23T23:27:12.821Z,25.92
2019-04-23T23:29:49.670Z,23.90
2019-04-23T23:32:22.790Z,26.10
2019-04-23T23:35:12.917Z,27.85
2019-04-23T23:37:19.210Z,17.57
2019-04-23T23:40:05.075Z,15.05
2019-04-23T23:42:36.792Z,12.98
2019-04-23T23:45:10.234Z,12.20
2019-04-23T23:47:38.074Z,11.68
2019-04-23T23:50:22.809Z,11.33
2019-04-23T23:53:03.995Z,10.35
2019-04-23T23:58:04.718Z,10.00
